sensor_id;sensor_type;location;lat;lon;timestamp;pressure;altitude;pressure_sealevel;temperature;humidity
62111;BME280;48102;47.526;19.072;2022-09-29T03:45:49;98966.72;;;11.96;100.00
62111;BME280;48102;47.526;19.072;2022-09-29T03:48:53;98972.00;;;11.96;100.00
62111;BME280;48102;47.526;19.072;2022-09-29T03:51:56;98963.97;;;11.98;100.00
62111;BME280;48102;47.526;19.072;2022-09-29T03:54:59;98961.94;;;12.01;100.00
62111;BME280;48102;47.526;19.072;2022-09-29T03:58:03;98954.47;;;12.07;100.00
62111;BME280;48102;47.526;19.072;2022-09-29T04:01:06;98951.13;;;12.16;100.00
62111;BME280;48102;47.526;19.072;2022-09-29T04:04:09;98956.16;;;12.19;100.00
62111;BME280;48102;47.526;19.072;2022-09-29T04:07:12;98953.16;;;12.12;100.00
62111;BME280;48102;47.526;19.072;2022-09-29T04:10:17;98944.25;;;12.13;100.00
62111;BME280;48102;47.526;19.072;2022-09-29T04:13:20;98940.91;;;12.11;100.00
62111;BME280;48102;47.526;19.072;2022-09-29T04:16:25;98948.84;;;12.11;100.00
62111;BME280;48102;47.526;19.072;2022-09-29T04:19:28;98946.44;;;12.08;100.00
62111;BME280;48102;47.526;19.072;2022-09-29T04:22:31;98952.31;;;12.12;100.00
62111;BME280;48102;47.526;19.072;2022-09-29T04:25:34;98947.03;;;12.12;100.00
62111;BME280;48102;47.526;19.072;2022-09-29T04:28:38;98948.38;;;12.06;100.00
62111;BME280;48102;47.526;19.072;2022-09-29T04:31:40;98946.31;;;12.10;100.00
62111;BME280;48102;47.526;19.072;2022-09-29T04:34:43;98940.91;;;12.11;100.00
62111;BME280;48102;47.526;19.072;2022-09-29T04:37:46;98939.72;;;12.15;100.00
62111;BME280;48102;47.526;19.072;2022-09-29T04:40:49;98945.00;;;12.15;100.00
62111;BME280;48102;47.526;19.072;2022-09-29T04:43:52;98936.94;;;12.17;100.00
62111;BME280;48102;47.526;19.072;2022-09-29T04:46:55;98949.22;;;12.18;100.00
62111;BME280;48102;47.526;19.072;2022-09-29T04:49:57;98950.06;;;12.18;100.00
62111;BME280;48102;47.526;19.072;2022-09-29T04:53:02;98952.78;;;12.17;100.00
62111;BME280;48102;47.526;19.072;2022-09-29T04:56:07;98950.75;;;12.20;100.00
62111;BME280;48102;47.526;19.072;2022-09-29T04:59:12;98947.28;;;12.20;100.00
62111;BME280;48102;47.526;19.072;2022-09-29T05:02:19;98955.06;;;12.21;100.00
62111;BME280;48102;47.526;19.072;2022-09-29T05:05:23;98952.78;;;12.28;100.00
62111;BME280;48102;47.526;19.072;2022-09-29T05:08:25;98959.97;;;12.26;100.00
62111;BME280;48102;47.526;19.072;2022-09-29T05:11:28;98951.13;;;12.27;100.00
62111;BME280;48102;47.526;19.072;2022-09-29T05:14:31;98957.25;;;12.27;100.00
62111;BME280;48102;47.526;19.072;2022-09-29T05:17:34;98955.56;;;12.26;100.00
62111;BME280;48102;47.526;19.072;2022-09-29T05:20:36;98959.97;;;12.26;100.00
62111;BME280;48102;47.526;19.072;2022-09-29T05:23:48;98962.03;;;12.34;100.00
62111;BME280;48102;47.526;19.072;2022-09-29T05:26:51;98960.00;;;12.48;100.00
62111;BME280;48102;47.526;19.072;2022-09-29T05:30:00;98956.13;;;12.52;100.00
62111;BME280;48102;47.526;19.072;2022-09-29T05:33:03;98967.06;;;12.48;100.00
62111;BME280;48102;47.526;19.072;2022-09-29T05:36:08;98956.13;;;12.52;100.00
62111;BME280;48102;47.526;19.072;2022-09-29T05:39:11;98954.56;;;12.61;100.00
62111;BME280;48102;47.526;19.072;2022-09-29T05:42:14;98967.88;;;12.60;100.00
62111;BME280;48102;47.526;19.072;2022-09-29T05:45:17;98960.09;;;12.58;100.00
62111;BME280;48102;47.526;19.072;2022-09-29T05:48:22;98960.31;;;12.55;100.00
62111;BME280;48102;47.526;19.072;2022-09-29T05:51:27;98972.94;;;12.63;100.00
62111;BME280;48102;47.526;19.072;2022-09-29T05:54:29;98972.56;;;12.67;100.00
62111;BME280;48102;47.526;19.072;2022-09-29T05:57:32;98975.56;;;12.63;100.00
62111;BME280;48102;47.526;19.072;2022-09-29T06:00:36;98979.78;;;12.54;100.00
62111;BME280;48102;47.526;19.072;2022-09-29T06:03:39;98981.47;;;12.55;100.00
62111;BME280;48102;47.526;19.072;2022-09-29T06:06:41;98981.59;;;12.53;100.00
62111;BME280;48102;47.526;19.072;2022-09-29T06:09:44;98988.91;;;12.50;100.00
62111;BME280;48102;47.526;19.072;2022-09-29T06:12:48;98992.91;;;12.44;100.00
62111;BME280;48102;47.526;19.072;2022-09-29T06:15:51;98993.97;;;12.42;100.00
62111;BME280;48102;47.526;19.072;2022-09-29T06:18:54;98994.69;;;12.44;100.00
62111;BME280;48102;47.526;19.072;2022-09-29T06:21:57;98997.81;;;12.49;100.00
62111;BME280;48102;47.526;19.072;2022-09-29T06:25:00;99005.47;;;12.52;100.00
62111;BME280;48102;47.526;19.072;2022-09-29T06:28:03;99013.53;;;12.50;100.00
62111;BME280;48102;47.526;19.072;2022-09-29T06:31:09;99001.16;;;12.51;100.00
62111;BME280;48102;47.526;19.072;2022-09-29T06:34:13;98999.34;;;12.63;100.00
62111;BME280;48102;47.526;19.072;2022-09-29T06:37:17;99007.50;;;12.71;100.00
62111;BME280;48102;47.526;19.072;2022-09-29T06:40:41;99009.44;;;12.69;100.00
62111;BME280;48102;47.526;19.072;2022-09-29T06:43:44;99009.19;;;12.72;100.00
62111;BME280;48102;47.526;19.072;2022-09-29T06:46:47;99007.84;;;12.89;100.00
62111;BME280;48102;47.526;19.072;2022-09-29T06:49:50;99018.63;;;12.97;100.00
62111;BME280;48102;47.526;19.072;2022-09-29T06:53:08;99019.84;;;12.93;100.00
62111;BME280;48102;47.526;19.072;2022-09-29T06:56:11;99024.91;;;12.85;100.00
62111;BME280;48102;47.526;19.072;2022-09-29T06:59:15;99023.25;;;12.72;100.00
62111;BME280;48102;47.526;19.072;2022-09-29T07:02:18;99028.56;;;12.61;100.00
62111;BME280;48102;47.526;19.072;2022-09-29T07:05:20;99037.19;;;12.52;100.00
62111;BME280;48102;47.526;19.072;2022-09-29T07:08:23;99039.38;;;12.36;100.00
62111;BME280;48102;47.526;19.072;2022-09-29T07:11:26;99036.47;;;12.50;100.00
62111;BME280;48102;47.526;19.072;2022-09-29T07:14:29;99038.97;;;12.85;100.00
62111;BME280;48102;47.526;19.072;2022-09-29T07:17:32;99028.81;;;13.24;100.00
62111;BME280;48102;47.526;19.072;2022-09-29T07:20:35;99035.13;;;13.44;100.00
62111;BME280;48102;47.526;19.072;2022-09-29T07:23:38;99034.56;;;13.61;100.00
62111;BME280;48102;47.526;19.072;2022-09-29T07:26:43;99040.63;;;13.73;100.00
62111;BME280;48102;47.526;19.072;2022-09-29T07:29:46;99042.91;;;13.77;100.00
62111;BME280;48102;47.526;19.072;2022-09-29T07:33:04;99040.16;;;13.68;100.00
62111;BME280;48102;47.526;19.072;2022-09-29T07:36:07;99051.91;;;13.54;100.00
62111;BME280;48102;47.526;19.072;2022-09-29T07:39:10;99051.84;;;13.44;100.00
62111;BME280;48102;47.526;19.072;2022-09-29T07:42:13;99045.53;;;13.57;100.00
62111;BME280;48102;47.526;19.072;2022-09-29T07:45:17;99060.47;;;13.99;100.00
62111;BME280;48102;47.526;19.072;2022-09-29T07:48:19;99055.00;;;14.43;100.00
62111;BME280;48102;47.526;19.072;2022-09-29T07:51:22;99062.56;;;14.78;100.00
62111;BME280;48102;47.526;19.072;2022-09-29T07:54:26;99061.59;;;14.79;100.00
62111;BME280;48102;47.526;19.072;2022-09-29T07:57:31;99060.34;;;14.83;100.00
62111;BME280;48102;47.526;19.072;2022-09-29T08:00:34;99073.06;;;14.89;100.00
62111;BME280;48102;47.526;19.072;2022-09-29T08:03:38;99083.75;;;15.09;100.00
62111;BME280;48102;47.526;19.072;2022-09-29T08:06:41;99086.25;;;15.10;100.00
62111;BME280;48102;47.526;19.072;2022-09-29T08:09:44;99085.91;;;14.94;100.00
62111;BME280;48102;47.526;19.072;2022-09-29T08:12:46;99077.94;;;14.84;100.00
62111;BME280;48102;47.526;19.072;2022-09-29T08:15:56;99074.19;;;14.87;100.00
62111;BME280;48102;47.526;19.072;2022-09-29T08:19:00;99082.88;;;14.68;100.00
62111;BME280;48102;47.526;19.072;2022-09-29T08:22:03;99083.56;;;14.91;100.00
62111;BME280;48102;47.526;19.072;2022-09-29T08:25:05;99088.50;;;15.15;100.00
62111;BME280;48102;47.526;19.072;2022-09-29T08:28:08;99090.16;;;15.06;100.00
62111;BME280;48102;47.526;19.072;2022-09-29T08:31:19;99093.44;;;15.29;100.00
62111;BME280;48102;47.526;19.072;2022-09-29T08:34:23;99097.81;;;15.88;100.00
62111;BME280;48102;47.526;19.072;2022-09-29T08:37:26;99098.09;;;16.04;100.00
62111;BME280;48102;47.526;19.072;2022-09-29T08:40:33;99100.22;;;15.82;100.00
62111;BME280;48102;47.526;19.072;2022-09-29T08:43:38;99103.25;;;16.16;100.00
62111;BME280;48102;47.526;19.072;2022-09-29T08:50:31;99111.06;;;16.17;100.00
62111;BME280;48102;47.526;19.072;2022-09-29T08:53:42;99115.44;;;15.89;100.00
62111;BME280;48102;47.526;19.072;2022-09-29T08:57:03;99113.31;;;16.12;100.00
62111;BME280;48102;47.526;19.072;2022-09-29T09:00:12;99115.41;;;16.28;100.00
62111;BME280;48102;47.526;19.072;2022-09-29T09:09:59;99121.56;;;16.85;100.00
62111;BME280;48102;47.526;19.072;2022-09-29T09:13:17;99117.06;;;17.23;100.00
62111;BME280;48102;47.526;19.072;2022-09-29T09:16:33;99123.44;;;17.58;100.00
62111;BME280;48102;47.526;19.072;2022-09-29T09:22:57;99133.50;;;17.99;100.00
62111;BME280;48102;47.526;19.072;2022-09-29T09:26:02;99122.75;;;18.27;100.00
62111;BME280;48102;47.526;19.072;2022-09-29T09:29:28;99127.50;;;17.97;94.62
62111;BME280;48102;47.526;19.072;2022-09-29T09:32:46;99133.97;;;17.77;94.94
62111;BME280;48102;47.526;19.072;2022-09-29T09:35:54;99130.88;;;18.25;97.79
62111;BME280;48102;47.526;19.072;2022-09-29T09:39:05;99142.50;;;18.42;90.97
62111;BME280;48102;47.526;19.072;2022-09-29T09:42:19;99151.59;;;18.75;93.88
62111;BME280;48102;47.526;19.072;2022-09-29T09:45:30;99140.09;;;19.09;85.23
62111;BME280;48102;47.526;19.072;2022-09-29T09:48:39;99139.47;;;19.23;81.57
62111;BME280;48102;47.526;19.072;2022-09-29T09:54:54;99139.50;;;19.32;90.72
62111;BME280;48102;47.526;19.072;2022-09-29T10:01:35;99159.25;;;18.26;86.39
62111;BME280;48102;47.526;19.072;2022-09-29T10:04:38;99154.69;;;17.73;89.76
62111;BME280;48102;47.526;19.072;2022-09-29T10:07:41;99149.81;;;17.51;94.95
62111;BME280;48102;47.526;19.072;2022-09-29T10:10:45;99142.91;;;17.58;98.13
62111;BME280;48102;47.526;19.072;2022-09-29T10:14:03;99128.22;;;17.72;98.28
62111;BME280;48102;47.526;19.072;2022-09-29T10:17:10;99124.72;;;17.53;94.32
62111;BME280;48102;47.526;19.072;2022-09-29T10:20:28;99130.41;;;17.41;94.91
62111;BME280;48102;47.526;19.072;2022-09-29T10:23:33;99139.84;;;17.53;93.34
62111;BME280;48102;47.526;19.072;2022-09-29T10:26:42;99145.56;;;17.58;95.12
62111;BME280;48102;47.526;19.072;2022-09-29T10:29:47;99150.84;;;18.21;95.40
62111;BME280;48102;47.526;19.072;2022-09-29T10:32:57;99150.28;;;18.79;85.02
62111;BME280;48102;47.526;19.072;2022-09-29T10:36:06;99136.28;;;19.20;81.86
62111;BME280;48102;47.526;19.072;2022-09-29T10:39:38;99134.72;;;19.51;79.77
62111;BME280;48102;47.526;19.072;2022-09-29T10:42:44;99149.16;;;19.67;78.49
62111;BME280;48102;47.526;19.072;2022-09-29T10:45:49;99146.22;;;20.35;77.63
62111;BME280;48102;47.526;19.072;2022-09-29T10:49:19;99148.53;;;20.54;73.39
62111;BME280;48102;47.526;19.072;2022-09-29T10:52:24;99152.34;;;19.70;73.22
62111;BME280;48102;47.526;19.072;2022-09-29T10:55:31;99149.06;;;19.42;78.67
62111;BME280;48102;47.526;19.072;2022-09-29T10:58:38;99152.22;;;19.88;79.24
62111;BME280;48102;47.526;19.072;2022-09-29T11:02:01;99147.22;;;20.01;75.48
62111;BME280;48102;47.526;19.072;2022-09-29T11:05:17;99151.41;;;20.04;77.95
62111;BME280;48102;47.526;19.072;2022-09-29T11:08:21;99143.34;;;20.69;74.92
62111;BME280;48102;47.526;19.072;2022-09-29T11:11:36;99157.56;;;21.34;71.54
62111;BME280;48102;47.526;19.072;2022-09-29T11:14:41;99157.66;;;21.79;67.76
62111;BME280;48102;47.526;19.072;2022-09-29T11:17:49;99157.97;;;22.08;67.33
62111;BME280;48102;47.526;19.072;2022-09-29T11:21:02;99149.72;;;22.09;62.96
62111;BME280;48102;47.526;19.072;2022-09-29T11:24:28;99144.12;;;22.19;68.34
62111;BME280;48102;47.526;19.072;2022-09-29T11:31:45;99147.97;;;22.77;58.07
62111;BME280;48102;47.526;19.072;2022-09-29T11:38:47;99147.81;;;22.41;59.16
62111;BME280;48102;47.526;19.072;2022-09-29T11:45:04;99148.31;;;21.67;58.91
62111;BME280;48102;47.526;19.072;2022-09-29T11:55:43;99155.25;;;20.42;64.59
62111;BME280;48102;47.526;19.072;2022-09-29T12:09:01;99166.72;;;20.92;59.12
62111;BME280;48102;47.526;19.072;2022-09-29T12:15:47;99172.13;;;20.59;58.53
62111;BME280;48102;47.526;19.072;2022-09-29T12:18:57;99180.31;;;20.17;59.08
62111;BME280;48102;47.526;19.072;2022-09-29T12:22:02;99180.25;;;19.76;60.64
62111;BME280;48102;47.526;19.072;2022-09-29T12:25:14;99183.47;;;19.45;64.78
62111;BME280;48102;47.526;19.072;2022-09-29T12:28:24;99184.66;;;19.51;67.29
62111;BME280;48102;47.526;19.072;2022-09-29T12:31:34;99181.94;;;19.00;69.16
62111;BME280;48102;47.526;19.072;2022-09-29T12:34:50;99180.63;;;18.61;69.84
62111;BME280;48102;47.526;19.072;2022-09-29T12:41:11;99186.88;;;17.90;76.64
62111;BME280;48102;47.526;19.072;2022-09-29T12:44:32;99187.56;;;17.46;83.26
62111;BME280;48102;47.526;19.072;2022-09-29T12:47:51;99190.38;;;17.08;82.68
62111;BME280;48102;47.526;19.072;2022-09-29T12:51:02;99180.34;;;16.92;90.85
62111;BME280;48102;47.526;19.072;2022-09-29T12:54:16;99171.22;;;17.04;100.00
62111;BME280;48102;47.526;19.072;2022-09-29T12:57:25;99205.09;;;17.12;100.00
62111;BME280;48102;47.526;19.072;2022-09-29T13:00:32;99206.00;;;16.93;100.00
62111;BME280;48102;47.526;19.072;2022-09-29T13:10:24;99210.81;;;16.21;99.50
62111;BME280;48102;47.526;19.072;2022-09-29T13:24:21;99204.00;;;19.79;77.14
62111;BME280;48102;47.526;19.072;2022-09-29T13:27:35;99207.56;;;21.49;69.51
62111;BME280;48102;47.526;19.072;2022-09-29T13:30:39;99212.38;;;21.93;62.06
62111;BME280;48102;47.526;19.072;2022-09-29T13:33:53;99209.81;;;21.77;63.95
62111;BME280;48102;47.526;19.072;2022-09-29T13:40:18;99200.69;;;22.17;65.21
62111;BME280;48102;47.526;19.072;2022-09-29T13:47:30;99203.03;;;23.55;53.42
62111;BME280;48102;47.526;19.072;2022-09-29T13:53:41;99213.97;;;21.40;61.69
62111;BME280;48102;47.526;19.072;2022-09-29T13:56:57;99211.78;;;20.47;66.47
62111;BME280;48102;47.526;19.072;2022-09-29T14:00:13;99210.41;;;19.52;68.52
62111;BME280;48102;47.526;19.072;2022-09-29T14:06:44;99212.72;;;18.69;78.70
62111;BME280;48102;47.526;19.072;2022-09-29T14:09:49;99225.94;;;18.35;76.61
62111;BME280;48102;47.526;19.072;2022-09-29T14:13:00;99220.62;;;18.17;81.73
62111;BME280;48102;47.526;19.072;2022-09-29T14:16:25;99216.09;;;18.09;86.63
62111;BME280;48102;47.526;19.072;2022-09-29T14:23:04;99225.81;;;17.73;87.45
62111;BME280;48102;47.526;19.072;2022-09-29T14:33:37;99231.25;;;17.53;83.03
62111;BME280;48102;47.526;19.072;2022-09-29T14:36:43;99233.81;;;18.18;77.94
62111;BME280;48102;47.526;19.072;2022-09-29T14:39:49;99231.66;;;18.75;75.50
62111;BME280;48102;47.526;19.072;2022-09-29T14:43:14;99249.09;;;18.88;76.55
62111;BME280;48102;47.526;19.072;2022-09-29T14:53:49;99251.31;;;20.03;67.80
62111;BME280;48102;47.526;19.072;2022-09-29T14:57:20;99259.53;;;20.10;70.40
62111;BME280;48102;47.526;19.072;2022-09-29T15:04:13;99268.66;;;19.48;70.65
62111;BME280;48102;47.526;19.072;2022-09-29T15:07:20;99259.94;;;19.12;72.12
62111;BME280;48102;47.526;19.072;2022-09-29T15:10:27;99260.81;;;18.95;72.94
62111;BME280;48102;47.526;19.072;2022-09-29T15:13:29;99256.59;;;18.66;74.91
62111;BME280;48102;47.526;19.072;2022-09-29T15:16:44;99264.91;;;18.45;72.89
62111;BME280;48102;47.526;19.072;2022-09-29T15:20:21;99259.22;;;17.95;76.00
62111;BME280;48102;47.526;19.072;2022-09-29T15:26:53;99265.34;;;17.50;77.82
